Mesquite, Nevada Weather observations

Data are for observation ending at time listed.
 Day   Time    Ave.   Ave.  Ave.  Vector   Max.   Stn.    Total    Solar   Ave.  
  of    of     Air    Rel.  Wind   Wind    Wind   Baro.  Precip.   Rad.    Soil  
Year   Day     Temp.  Hum.  Speed  Dir.    Gust   Pres.                    Temp. 
2015   (PST)    F      %     mph   deg.    mph     mb.     in.     W/m2     F   
------------------------------------------------------------------------------
 240   16:10  106.2    12    5.1   258      8.6   946.6    0.00     277    119.0
 240   16:20  106.4    12    4.8   272     10.1   946.5    0.00     253    119.1
 240   16:30  106.2    12    5.9   266     10.5   946.4    0.00     228    117.8
 240   16:40  105.6    13    5.2   252      9.2   946.4    0.00     193    116.8
 240   16:50  106.1    12    4.6   227      9.4   946.3    0.00     178    117.1
 240   17:00  105.6    12    5.6   243      9.7   946.2    0.00     151    115.0
 240   17:10  105.5    12    4.0   253      9.6   946.1    0.00     127    114.9
 240   17:20  105.6    12    3.4   248      7.0   946.0    0.00      92    113.6
 240   17:30  104.8    12    3.9   231      5.9   946.0    0.00      60    111.7
 240   17:40  103.9    13    4.5   232      8.6   946.0    0.00      37    109.3
 240   17:50  103.1    13    3.2   228      6.9   946.0    0.00      20    108.3
 240   18:00  102.5    13    2.4   231      5.6   946.1    0.00      14    107.3
 240   18:10  102.0    13    3.6   241      6.1   946.0    0.00      10    106.6
 240   18:20  101.6    13    3.5   237      5.8   946.0    0.00       3    105.9
 240   18:30  101.2    14    2.8   233      4.2   946.1    0.00       3    105.0
 240   18:40  100.8    14    3.3   231      4.9   946.2    0.00       0    104.5
 240   18:50  100.4    14    2.7   248      4.2   946.3    0.00       0    103.7
 240   19:00  100.2    14    3.4   259      4.7   946.4    0.00       0    103.1
 240   19:10  100.0    14    3.1   254      4.8   946.5    0.00       0    102.9
 240   19:20   99.7    13    2.6   242      3.4   946.6    0.00       0    102.5
 240   19:30   99.1    14    2.6   246      3.4   946.7    0.00       0    100.9
 240   19:40   98.0    14    2.4   189      3.7   946.9    0.00       1    100.2
 240   19:50   96.5    15    2.1   111      3.7   947.0    0.00       1    99.4
 240   20:00   93.6    18    3.2    64      4.3   947.0    0.00       1    97.9
 240   20:10   92.9    18    3.2    60      4.0   947.1    0.00       2    97.7
 240   20:20   92.3    18    2.8    52      3.6   947.1    0.00       1    97.1
 240   20:30   91.8    18    2.8    50      3.3   947.1    0.00       2    96.8
 240   20:40   91.3    18    3.0    57      3.3   947.1    0.00       1    96.2
 240   20:50   90.7    18    3.7    60      4.4   947.2    0.00       2    95.6
 240   21:00   90.4    19    3.0    64      3.7   947.2    0.00       2    95.3
 240   21:10   90.6    19    2.3    61      3.0   947.1    0.00       1    95.2
 240   21:20   90.4    19    2.1    72      2.8   947.1    0.00       2    95.2
 240   21:30   90.3    18    3.4    83      4.5   947.1    0.00       1    94.6
 240   21:40   90.0    19    3.5    91      4.5   947.1    0.00       1    94.7
 240   21:50   90.0    19    2.0    90      3.3   947.1    0.00       2    94.2
 240   22:00   90.2    18    1.8    82      2.5   947.1    0.00       1    93.9
 240   22:10   90.1    19    2.0    48      2.9   947.1    0.00       1    93.6
 240   22:20   90.3    18    0.8    69      2.0   947.2    0.00       1    93.8
 240   22:30   90.1    19    0.7   202      3.1   947.2    0.00       1    93.6
 240   22:40   89.5    20    0.9   124      2.0   947.2    0.00       1    93.3
 240   22:50   88.4    21    2.1   258      3.7   947.3    0.00       1    92.9
 240   23:00   87.9    21    2.0   260      4.5   947.3    0.00       1    92.6
 240   23:10   87.1    22    2.0   160      3.4   947.3    0.00       1    91.8
 240   23:20   86.4    22    1.7   133      3.4   947.3    0.00       1    91.5
 240   23:30   86.0    22    0.8   107      1.8   947.3    0.00       1    91.0
 240   23:40   86.3    22    1.8    63      3.8   947.4    0.00       1    90.8
 240   23:50   84.6    22    2.4    86      4.2   947.5    0.00       1    90.2
 241    0:00   84.8    22    1.4    58      2.9   947.5    0.00       0    90.2
 241    0:10   83.9    22    3.1    54      4.2   947.5    0.00       1    89.4
 241    0:20   83.9    23    0.9    37      2.4   947.5    0.00       1    89.8
 241    0:30   84.6    22    0.7     9      2.0   947.5    0.00       0    89.6
 241    0:40   84.8    22    0.5    16      1.5   947.6    0.00       1    89.5
 241    0:50   84.7    22    0.8    44      1.8   947.5    0.00       1    89.1
 241    1:00   84.3    22    2.9    47      5.1   947.5    0.00       1    88.9
 241    1:10   83.9    22    3.6    32      5.6   947.5    0.00       1    88.8
 241    1:20   84.7    21    4.6    48      6.6   947.6    0.00       1    89.2
 241    1:30   84.2    24    2.7   303      4.5   947.7    0.00       1    89.2
 241    1:40   83.3    25    2.4   255      3.6   947.7    0.00       0    88.6
 241    1:50   83.3    24    1.7   142      4.2   947.7    0.00       1    88.2
 241    2:00   82.0    25    1.9   106      3.1   947.7    0.00       1    87.5
 241    2:10   81.9    25    2.6   108      3.5   947.7    0.00       1    87.3
 241    2:20   81.5    25    2.4    86      3.6   947.7    0.00       1    87.3
 241    2:30   81.4    25    2.3    68      3.3   947.7    0.00       1    86.8
 241    2:40   81.7    24    2.6    77      3.9   947.7    0.00       0    87.0
 241    2:50   82.0    24    1.5    84      2.8   947.8    0.00       1    87.0
 241    3:00   81.8    25    0.3    90      1.4   947.8    0.00       0    86.9
 241    3:10   81.6    25    0.5   134      1.6   947.8    0.00       0    86.5
 241    3:20   81.0    26    2.1   137      3.4   947.8    0.00       1    86.3
 241    3:30   80.7    26    1.5   115      3.1   947.8    0.00       1    86.3
 241    3:40   80.2    26    3.0    80      3.5   947.8    0.00       0    85.8
 241    3:50   79.2    27    3.1    76      3.9   947.8    0.00       1    85.4
 241    4:00   79.4    27    2.5    86      3.4   947.8    0.00       1    85.5
 241    4:10   79.8    26    2.1    78      3.6   947.9    0.00       1    85.7
 241    4:20   80.2    26    2.4    68      3.1   947.9    0.00       0    85.7
 241    4:30   80.7    26    2.4    69      2.8   947.9    0.00       1    85.9
 241    4:40   80.5    26    1.3    57      2.1   947.9    0.00       0    85.4
 241    4:50   80.4    26    2.1   127      3.1   948.0    0.00       1    85.3
 241    5:00   80.0    27    1.9   161      3.7   948.1    0.00       3    85.4
 241    5:10   78.7    28    2.9    63      4.7   948.1    0.00       3    84.6
 241    5:20   77.4    29    2.6    63      4.0   948.3    0.00       6    84.4
 241    5:30   78.5    28    0.8    76      1.8   948.4    0.00      10    85.1
 241    5:40   79.7    28    0.4   306      1.6   948.5    0.00      25    85.0
 241    5:50   81.3    27    0.6   282      2.8   948.6    0.00      57    85.7
 241    6:00   83.0    27    0.6   289      2.7   948.8    0.00      77    86.0
 241    6:10   83.8    25    1.5   287      3.0   948.8    0.00     106    86.9
 241    6:20   85.2    24    1.2   251      1.8   948.9    0.00     130    87.3
 241    6:30   86.8    24    1.5   197      3.0   949.1    0.00     156    87.9
 241    6:40   85.4    27    2.8   223      3.9   949.1    0.00     179    87.0
 241    6:50   85.1    25    2.2   240      4.3   949.1    0.00     202    87.8
 241    7:00   86.0    24    1.5   243      3.4   949.2    0.00     223    88.4
 241    7:10   87.8    23    1.9   219      3.2   949.3    0.00     254    88.9
 241    7:20   88.5    22    1.9   196      3.1   949.3    0.00     286    89.2
 241    7:30   90.1    22    1.9   194      3.9   949.4    0.00     312    89.9
 241    7:40   90.6    21    1.5   204      2.9   949.4    0.00     293    90.3
 241    7:50   91.5    21    1.2   198      3.1   949.4    0.00     330    91.2
 241    8:00   92.6    20    1.6   188      3.0   949.4    0.00     378    92.4
 241    8:10   94.2    19    1.4   172      2.9   949.4    0.00     393    94.4
 241    8:20   93.9    20    1.0   214      2.6   949.5    0.00     404    94.4
 241    8:30   95.2    19    1.7    56      4.5   949.5    0.00     397    98.3
 241    8:40   96.0    18    2.7    56      6.7   949.5    0.00     436    100.9
 241    8:50   96.6    17    3.8    79      6.4   949.5    0.00     402    101.6
 241    9:00   97.4    16    2.8    72      5.5   949.5    0.00     473    103.6
 241    9:10   99.1    15    2.5    76      5.0   949.5    0.00     514    105.5
 241    9:20  101.2    15    1.7   130      3.9   949.4    0.00     523    103.1
 241    9:30  101.0    15    2.8   162      4.6   949.5    0.00     551    105.3
 241    9:40  101.4    15    1.9   187      3.8   949.3    0.00     533    105.3
 241    9:50  102.3    15    2.0   209      4.5   949.3    0.00     573    106.8
 241   10:00  102.3    15    2.5   223      6.0   949.2    0.00     543    106.8
 241   10:10  103.1    15    2.3   199      5.3   949.1    0.00     586    109.0
 241   10:20  102.5    15    3.9   293      8.0   949.0    0.00     570    109.0
 241   10:30  102.7    15    2.9   285      6.3   948.9    0.00     606    110.5
 241   10:40  102.7    15    3.9   280      7.6   948.7    0.00     613    110.6
 241   10:50  102.9    15    3.5   281      6.8   948.6    0.00     618    112.6
 241   11:00  103.4    15    4.3   267      8.4   948.4    0.00     660    112.8
 241   11:10  103.9    15    4.4   239      8.4   948.3    0.00     654    113.3
 241   11:20  103.9    15    5.1   253      8.9   948.1    0.00     643    114.1
 241   11:30  105.0    14    4.6   263     10.5   947.9    0.00     641    115.5
 241   11:40  104.4    15    6.2   249     11.2   947.8    0.00     637    115.2
 241   11:50  105.0    14    4.4   234      8.0   947.7    0.00     669    116.5
 241   12:00  106.2    14    2.2   229      4.8   947.5    0.00     668    119.3
 241   12:10  106.2    14    3.2   237      6.1   947.3    0.00     673    119.1
 241   12:20  107.3    14    2.3   215      8.3   947.2    0.00     661    122.0
 241   12:30  106.9    14    6.0   262     14.5   947.1    0.00     540    119.6
 241   12:40  104.8    14    6.0   264     14.0   946.9    0.00     301    116.3
 241   12:50  106.2    14    9.2   254     18.9   946.7    0.00     659    118.1
 241   13:00  106.7    14    8.3   230     19.6   946.6    0.00     645    118.9
 241   13:10  106.3    13    9.8   244     18.9   946.4    0.00     632    118.7
 241   13:20  106.1    13   12.9   245     23.3   946.1    0.00     624    118.1
 241   13:30  106.6    14    9.2   236     21.0   945.9    0.00     612    119.4
 241   13:40  107.5    13    8.3   227     18.3   945.8    0.00     594    120.4
 241   13:50  107.7    13    8.1   221     17.6   945.6    0.00     577    120.8
 241   14:00  107.7    13    8.3   230     21.5   945.6    0.00     542    120.8
 241   14:10  106.6    13   10.4   241     22.0   945.5    0.00     517    119.3
 241   14:20  106.6    13   10.2   234     20.4   945.3    0.00     490    118.9
 241   14:30  106.8    13    8.5   232     19.8   945.1    0.00     458    119.7
 241   14:40  107.1    13    8.6   233     17.0   944.9    0.00     451    119.4
 241   14:50  107.8    13    7.1   221     15.7   944.9    0.00     475    120.5
 241   15:00  107.4    13    8.7   234     19.0   944.8    0.00     456    119.7
 241   15:10  106.7    13    9.6   242     19.7   944.7    0.00     438    118.9
 241   15:20  107.3    13    8.7   225     18.6   944.6    0.00     470    120.3
 241   15:30  108.7    13    9.9   174     20.6   944.7    0.00     455    122.2
 241   15:40  107.1    14   14.7   132     23.2   944.7    0.00     359    119.7
 241   15:50  105.5    14   18.0   101     28.7   944.5    0.00     371    119.9
 241   16:00  105.4    14   16.6    75     23.3   944.3    0.00     324    120.3

Return to Mesquite, Nevada graphs page.


Western Regional Climate Center,wrcc@dri.edu